TimeCDT,TemperatureF,Dew PointF,Humidity,Sea Level PressureIn,VisibilityMPH,Wind Direction,Wind SpeedMPH,Gust SpeedMPH,PrecipitationIn,Events,Conditions,WindDirDegrees,DateUTC
12:53 AM,62.1,57.9,86,29.88,10.0,SE,12.7,-,0.00,,Clear,130,2013-07-21 05:53:00
1:53 AM,62.1,57.0,84,29.86,10.0,ESE,13.8,-,N/A,,Clear,120,2013-07-21 06:53:00
2:53 AM,61.0,57.0,87,29.81,10.0,SE,12.7,-,N/A,,Clear,140,2013-07-21 07:53:00
3:53 AM,59.0,55.0,87,29.83,10.0,NW,8.1,-,N/A,,Clear,310,2013-07-21 08:53:00
4:53 AM,59.0,55.9,90,29.87,10.0,WNW,8.1,-,N/A,,Clear,300,2013-07-21 09:53:00
5:53 AM,61.0,57.0,87,29.94,10.0,NW,5.8,-,N/A,,Scattered Clouds,320,2013-07-21 10:53:00
6:53 AM,64.0,55.0,73,29.91,10.0,NNE,16.1,23.0,N/A,,Scattered Clouds,30,2013-07-21 11:53:00
7:35 AM,64.4,55.4,73,30.00,10.0,NNE,16.1,24.2,0.00,Rain-Thunderstorm,Light Thunderstorms and Rain,20,2013-07-21 12:35:00
7:53 AM,64.0,55.9,75,29.93,8.0,NNE,10.4,-,0.02,Rain,Light Rain,30,2013-07-21 12:53:00
8:53 AM,64.9,59.0,81,29.89,10.0,South,5.8,-,0.06,,Clear,190,2013-07-21 13:53:00
9:53 AM,72.0,59.0,64,29.86,10.0,South,5.8,-,N/A,,Clear,170,2013-07-21 14:53:00
10:53 AM,80.1,60.1,50,29.85,10.0,South,8.1,-,N/A,,Clear,190,2013-07-21 15:53:00
11:53 AM,82.9,57.0,41,29.85,10.0,South,11.5,-,N/A,,Clear,190,2013-07-21 16:53:00
12:53 PM,84.9,60.1,43,29.82,10.0,South,10.4,-,N/A,,Clear,190,2013-07-21 17:53:00
1:53 PM,87.1,57.0,36,29.79,10.0,South,11.5,-,N/A,,Clear,190,2013-07-21 18:53:00
2:53 PM,89.1,57.9,35,29.78,10.0,SSW,11.5,-,N/A,,Clear,200,2013-07-21 19:53:00
3:53 PM,90.0,60.1,37,29.78,10.0,SSW,10.4,-,N/A,,Clear,210,2013-07-21 20:53:00
4:53 PM,90.0,60.1,37,29.75,10.0,South,6.9,-,N/A,,Clear,190,2013-07-21 21:53:00
5:53 PM,91.0,59.0,34,29.75,10.0,SSE,6.9,-,N/A,,Clear,160,2013-07-21 22:53:00
6:53 PM,89.1,59.0,36,29.73,10.0,South,9.2,-,N/A,,Clear,170,2013-07-21 23:53:00
7:53 PM,87.1,61.0,41,29.73,10.0,SSE,4.6,-,N/A,,Clear,150,2013-07-22 00:53:00
8:53 PM,79.0,63.0,58,29.73,10.0,SE,5.8,-,N/A,,Clear,140,2013-07-22 01:53:00
9:53 PM,73.9,66.0,76,29.75,10.0,East,9.2,-,N/A,,Clear,100,2013-07-22 02:53:00
10:53 PM,72.0,64.9,78,29.76,10.0,ESE,5.8,-,N/A,,Clear,110,2013-07-22 03:53:00
11:53 PM,69.1,64.9,87,29.78,10.0,ESE,5.8,-,N/A,,Clear,110,2013-07-22 04:53:00